createdAt,value
2023-04-14T00:00:49.513Z,33.20
2023-04-14T00:04:18.077Z,28.50
2023-04-14T00:07:45.154Z,27.90
2023-04-14T00:11:11.967Z,29.30
2023-04-14T00:14:38.974Z,28.20
2023-04-14T00:18:06.342Z,32.10
2023-04-14T00:21:33.560Z,33.40
2023-04-14T00:25:01.323Z,30.50
2023-04-14T00:28:28.369Z,32.90
2023-04-14T00:31:55.368Z,30.00
2023-04-14T00:35:22.232Z,32.50
2023-04-14T00:38:49.389Z,28.80
2023-04-14T00:42:16.366Z,32.00
2023-04-14T00:45:46.199Z,34.10
2023-04-14T00:49:13.502Z,38.50
2023-04-14T00:52:43.812Z,36.80
2023-04-14T00:56:11.137Z,35.80
2023-04-14T00:59:39.385Z,36.90
2023-04-14T01:03:07.181Z,37.40
2023-04-14T01:06:34.884Z,34.70
2023-04-14T01:10:02.149Z,34.70
2023-04-14T01:13:36.717Z,34.30
2023-04-14T01:17:10.412Z,35.20
2023-04-14T01:20:42.017Z,37.30
2023-04-14T01:24:27.384Z,38.90
2023-04-14T01:28:06.548Z,38.00
2023-04-14T01:31:39.719Z,33.00
2023-04-14T01:35:13.266Z,34.70
2023-04-14T01:38:42.049Z,36.50
2023-04-14T01:42:12.434Z,37.40
2023-04-14T01:45:44.115Z,29.40
2023-04-14T01:49:11.556Z,36.20
2023-04-14T01:52:39.573Z,34.10
2023-04-14T01:56:08.963Z,33.50
2023-04-14T01:59:38.244Z,35.80
2023-04-14T02:03:07.316Z,25.90
2023-04-14T02:06:37.026Z,34.50
2023-04-14T02:10:04.665Z,37.10
2023-04-14T02:13:33.007Z,40.70
2023-04-14T02:17:02.918Z,38.50
2023-04-14T02:20:30.906Z,40.30
2023-04-14T02:23:57.841Z,33.80
2023-04-14T02:27:32.026Z,31.00
2023-04-14T02:31:02.566Z,34.90
2023-04-14T02:34:36.133Z,37.10
2023-04-14T02:38:09.442Z,37.60
2023-04-14T02:41:39.732Z,39.80
2023-04-14T02:45:13.334Z,36.30
2023-04-14T02:48:43.102Z,37.50
2023-04-14T02:52:15.446Z,36.20
2023-04-14T02:55:43.432Z,40.30
2023-04-14T02:59:11.375Z,36.50
2023-04-14T03:02:47.261Z,36.60
2023-04-14T03:06:15.947Z,34.00
2023-04-14T03:09:44.618Z,38.10
2023-04-14T03:13:12.890Z,38.90
2023-04-14T03:16:41.257Z,36.80
2023-04-14T03:20:11.033Z,33.40
2023-04-14T03:23:39.559Z,35.10
2023-04-14T03:27:13.267Z,36.20
2023-04-14T03:30:45.327Z,33.50
2023-04-14T03:34:15.384Z,31.90
2023-04-14T03:37:44.238Z,35.10
2023-04-14T03:41:13.157Z,34.20
2023-04-14T03:44:46.188Z,34.30
2023-04-14T03:48:17.196Z,34.80
2023-04-14T03:51:49.694Z,32.60
2023-04-14T03:55:19.820Z,31.50
2023-04-14T03:58:49.363Z,35.30
2023-04-14T04:02:18.111Z,34.00
2023-04-14T04:05:48.793Z,33.00
2023-04-14T04:09:18.046Z,31.20
2023-04-14T04:12:47.963Z,34.80
2023-04-14T04:16:17.077Z,33.30
2023-04-14T04:19:46.218Z,34.40
2023-04-14T04:23:15.910Z,35.20
2023-04-14T04:26:43.222Z,34.00
2023-04-14T04:30:14.304Z,37.00
2023-04-14T04:33:42.285Z,36.30
2023-04-14T04:37:11.189Z,30.80
2023-04-14T04:40:41.471Z,34.50
2023-04-14T04:44:15.030Z,36.90
2023-04-14T04:47:42.111Z,33.50
2023-04-14T04:51:09.191Z,32.10
2023-04-14T04:54:35.977Z,32.40
2023-04-14T04:58:03.018Z,38.00
2023-04-14T05:01:30.249Z,42.60
2023-04-14T05:04:57.524Z,41.20
2023-04-14T05:08:24.636Z,40.90
2023-04-14T05:11:51.570Z,43.00
2023-04-14T05:15:19.218Z,43.10
2023-04-14T05:18:46.307Z,37.00
2023-04-14T05:22:14.135Z,34.30
2023-04-14T05:25:41.416Z,33.10
2023-04-14T05:29:08.463Z,32.60
2023-04-14T05:32:35.412Z,37.20
2023-04-14T05:36:02.380Z,31.00
2023-04-14T05:39:29.369Z,36.90
2023-04-14T05:42:57.122Z,37.40
2023-04-14T05:46:24.202Z,36.50
2023-04-14T05:49:51.347Z,32.10
2023-04-14T05:53:18.426Z,31.80
2023-04-14T05:56:45.694Z,35.80
2023-04-14T06:00:14.593Z,41.20
2023-04-14T06:03:42.388Z,36.00
2023-04-14T06:07:09.743Z,36.30
2023-04-14T06:10:36.656Z,40.20
2023-04-14T06:14:05.460Z,39.60
2023-04-14T06:17:32.754Z,44.30
2023-04-14T06:20:59.902Z,47.50
2023-04-14T06:24:27.134Z,44.60
2023-04-14T06:27:53.944Z,40.60
2023-04-14T06:31:20.887Z,39.20
2023-04-14T06:34:49.829Z,39.10
2023-04-14T06:38:18.120Z,38.30
2023-04-14T06:41:45.183Z,34.60
2023-04-14T06:45:14.744Z,41.40
2023-04-14T06:48:41.751Z,39.80
2023-04-14T06:52:09.197Z,34.60
2023-04-14T06:55:41.641Z,40.80
2023-04-14T06:59:08.561Z,41.50
2023-04-14T07:02:35.559Z,40.80
2023-04-14T07:06:11.530Z,42.00
2023-04-14T07:09:38.502Z,41.30
2023-04-14T07:13:05.606Z,41.40
2023-04-14T07:16:32.540Z,44.40
2023-04-14T07:19:59.542Z,43.80
2023-04-14T07:23:26.720Z,46.40
2023-04-14T07:26:53.660Z,44.30
2023-04-14T07:30:21.422Z,44.80
2023-04-14T07:33:48.361Z,45.30
2023-04-14T07:37:16.553Z,55.40
2023-04-14T07:40:43.278Z,48.90
2023-04-14T07:44:10.452Z,45.90
2023-04-14T07:47:37.527Z,49.50
2023-04-14T07:51:05.565Z,53.00
2023-04-14T07:54:32.976Z,51.10
2023-04-14T07:57:59.953Z,49.30
2023-04-14T08:01:27.130Z,53.60
2023-04-14T08:04:54.652Z,46.10
2023-04-14T08:08:21.632Z,45.30
2023-04-14T08:11:48.486Z,51.10
2023-04-14T08:15:15.619Z,48.10
2023-04-14T08:18:43.496Z,50.20
2023-04-14T08:22:10.373Z,49.40
2023-04-14T08:25:37.352Z,51.50
2023-04-14T08:29:04.508Z,47.90
2023-04-14T08:32:31.741Z,52.80
2023-04-14T08:36:00.359Z,47.20
2023-04-14T08:39:29.231Z,45.00
2023-04-14T08:42:57.639Z,51.50
2023-04-14T08:46:27.625Z,51.30
2023-04-14T08:50:06.110Z,44.50
2023-04-14T08:53:35.052Z,49.00
2023-04-14T08:57:03.001Z,55.40
2023-04-14T09:00:31.031Z,50.50
2023-04-14T09:03:59.286Z,46.80
2023-04-14T09:07:30.230Z,54.70
2023-04-14T09:11:01.926Z,55.90
2023-04-14T09:14:33.132Z,53.10
2023-04-14T09:18:03.666Z,47.30
2023-04-14T09:21:53.578Z,49.80
2023-04-14T09:25:23.519Z,50.40
2023-04-14T09:28:52.547Z,51.00
2023-04-14T09:32:20.960Z,48.00
2023-04-14T09:35:51.886Z,36.30
2023-04-14T09:39:21.792Z,45.50
2023-04-14T09:42:49.036Z,44.50
2023-04-14T09:46:16.730Z,44.80
2023-04-14T09:49:58.621Z,42.20
2023-04-14T09:53:29.938Z,46.20
2023-04-14T09:56:57.709Z,44.50
2023-04-14T10:00:25.777Z,51.00
2023-04-14T10:03:53.087Z,42.70
2023-04-14T10:07:21.520Z,47.50
2023-04-14T10:10:48.687Z,53.50
2023-04-14T10:14:15.638Z,51.40
2023-04-14T10:17:43.521Z,38.60
2023-04-14T10:21:11.492Z,45.50
2023-04-14T10:24:39.358Z,47.90
2023-04-14T10:28:06.716Z,44.90
2023-04-14T10:31:37.373Z,40.20
2023-04-14T10:35:08.818Z,34.30
2023-04-14T10:38:44.002Z,36.30
2023-04-14T10:42:11.213Z,35.10
2023-04-14T10:45:56.229Z,34.40
2023-04-14T10:49:26.914Z,32.00
2023-04-14T10:52:57.808Z,31.50
2023-04-14T10:56:26.437Z,31.80
2023-04-14T10:59:57.406Z,32.10
2023-04-14T11:03:25.652Z,28.90
2023-04-14T11:06:57.188Z,34.80
2023-04-14T11:14:14.966Z,33.40
2023-04-14T11:17:43.303Z,32.30
2023-04-14T11:21:13.462Z,30.80
2023-04-14T11:24:41.500Z,35.40
2023-04-14T11:28:08.851Z,30.00
2023-04-14T11:31:37.904Z,28.80
2023-04-14T11:35:13.913Z,28.70
2023-04-14T11:38:42.881Z,31.90
2023-04-14T11:45:43.356Z,25.20
2023-04-14T11:49:10.909Z,28.50
2023-04-14T11:52:40.271Z,32.30
2023-04-14T11:56:09.591Z,24.70
2023-04-14T11:59:46.067Z,22.60
2023-04-14T12:03:19.552Z,23.50
2023-04-14T12:06:47.386Z,25.50
2023-04-14T12:10:17.844Z,28.80
2023-04-14T12:13:50.800Z,18.10
2023-04-14T12:17:22.315Z,15.70
2023-04-14T12:20:57.628Z,14.80
2023-04-14T12:24:25.203Z,16.60
2023-04-14T12:27:57.123Z,15.90
2023-04-14T12:31:31.257Z,15.80
2023-04-14T12:34:58.821Z,19.20
2023-04-14T12:38:29.849Z,16.30
2023-04-14T12:41:58.930Z,13.80
2023-04-14T12:45:26.937Z,15.50
2023-04-14T12:48:55.077Z,12.60
2023-04-14T12:52:37.041Z,13.00
2023-04-14T12:56:09.442Z,14.20
2023-04-14T12:59:39.620Z,12.70
2023-04-14T13:03:07.188Z,12.80
2023-04-14T13:06:35.031Z,11.50
2023-04-14T13:10:02.162Z,13.70
2023-04-14T13:13:29.364Z,15.90
2023-04-14T13:16:56.299Z,12.50
2023-04-14T13:20:23.603Z,11.20
2023-04-14T13:23:50.999Z,11.20
2023-04-14T13:27:18.731Z,12.70
2023-04-14T13:30:47.218Z,11.40
2023-04-14T13:34:14.426Z,10.40
2023-04-14T13:37:42.671Z,14.00
2023-04-14T13:41:09.611Z,11.00
2023-04-14T13:44:37.774Z,10.20
2023-04-14T13:48:05.032Z,8.50
2023-04-14T13:51:33.467Z,11.80
2023-04-14T13:55:00.750Z,11.40
2023-04-14T13:58:27.928Z,11.30
2023-04-14T14:01:54.959Z,12.20
2023-04-14T14:05:21.951Z,10.70
2023-04-14T14:09:01.463Z,10.20
2023-04-14T14:12:31.000Z,13.00
2023-04-14T14:15:58.093Z,15.90
2023-04-14T14:19:25.966Z,10.20
2023-04-14T14:22:55.696Z,9.60
2023-04-14T14:26:25.893Z,9.40
2023-04-14T14:29:56.118Z,13.40
2023-04-14T14:33:24.918Z,10.00
2023-04-14T14:36:59.405Z,11.80
2023-04-14T14:40:27.442Z,10.10
2023-04-14T14:43:56.026Z,11.10
2023-04-14T14:47:24.387Z,10.00
2023-04-14T14:50:53.369Z,9.10
2023-04-14T14:54:23.614Z,11.90
2023-04-14T14:57:53.825Z,10.80
2023-04-14T15:04:54.261Z,12.50
2023-04-14T15:08:29.389Z,11.00
2023-04-14T15:12:00.184Z,12.70
2023-04-14T15:15:30.234Z,13.10
2023-04-14T15:22:26.036Z,15.70
2023-04-14T15:25:54.888Z,12.30
2023-04-14T15:29:26.925Z,19.40
2023-04-14T15:32:54.771Z,13.80
2023-04-14T15:36:25.530Z,18.10
2023-04-14T15:39:54.751Z,17.50
2023-04-14T15:43:27.884Z,27.10
2023-04-14T15:47:00.478Z,17.00
2023-04-14T15:50:44.349Z,17.50
2023-04-14T15:54:16.506Z,16.60
2023-04-14T15:57:48.129Z,25.30
2023-04-14T16:01:21.246Z,24.40
2023-04-14T16:04:51.197Z,22.80
2023-04-14T16:08:19.424Z,16.80
2023-04-14T16:11:47.402Z,23.50
2023-04-14T16:15:15.990Z,20.30
2023-04-14T16:18:44.396Z,19.40
2023-04-14T16:22:12.883Z,24.60
2023-04-14T16:25:40.662Z,23.10
2023-04-14T16:29:08.984Z,22.00
2023-04-14T16:32:36.516Z,19.40
2023-04-14T16:36:10.324Z,18.70
2023-04-14T16:39:41.703Z,25.90
2023-04-14T16:43:10.199Z,19.80
2023-04-14T16:46:38.166Z,21.50
2023-04-14T16:50:06.420Z,16.00
2023-04-14T16:53:36.723Z,25.70
2023-04-14T16:57:05.488Z,21.20
2023-04-14T17:00:34.266Z,22.80
2023-04-14T17:04:04.245Z,26.40
2023-04-14T17:07:36.024Z,26.90
2023-04-14T17:11:06.799Z,29.50
2023-04-14T17:14:35.688Z,28.70
2023-04-14T17:18:08.750Z,20.20
2023-04-14T17:21:39.988Z,23.00
2023-04-14T17:25:13.755Z,23.10
2023-04-14T17:28:40.490Z,20.30
2023-04-14T17:32:08.358Z,18.60
2023-04-14T17:35:36.626Z,19.00
2023-04-14T17:39:04.417Z,16.70
2023-04-14T17:42:31.804Z,20.10
2023-04-14T17:45:58.808Z,16.60
2023-04-14T17:49:26.128Z,18.20
2023-04-14T17:52:53.586Z,16.70
2023-04-14T17:56:20.471Z,14.40
2023-04-14T17:59:47.736Z,19.20
2023-04-14T18:03:15.250Z,17.50
2023-04-14T18:06:43.196Z,21.50
2023-04-14T18:10:12.114Z,16.60
2023-04-14T18:13:38.989Z,17.90
2023-04-14T18:17:06.622Z,21.40
2023-04-14T18:20:34.901Z,16.20
2023-04-14T18:31:04.175Z,20.50
2023-04-14T18:34:32.053Z,15.80
2023-04-14T18:37:59.045Z,16.50
2023-04-14T18:41:26.946Z,15.80
2023-04-14T18:44:56.406Z,16.50
2023-04-14T18:51:50.421Z,23.20
2023-04-14T18:55:19.546Z,18.30
2023-04-14T18:58:47.473Z,17.30
2023-04-14T19:02:14.945Z,17.00
2023-04-14T19:05:42.720Z,12.80
2023-04-14T19:09:09.458Z,15.80
2023-04-14T19:12:40.790Z,11.80
2023-04-14T19:16:11.955Z,13.20
2023-04-14T19:19:42.753Z,13.90
2023-04-14T19:23:10.708Z,12.80
2023-04-14T19:26:42.443Z,16.80
2023-04-14T19:30:13.258Z,16.40
2023-04-14T19:33:42.880Z,14.00
2023-04-14T19:37:10.998Z,15.60
2023-04-14T19:40:38.311Z,13.40
2023-04-14T19:44:06.153Z,12.00
2023-04-14T19:47:33.117Z,12.80
2023-04-14T19:51:00.094Z,11.70
2023-04-14T19:54:27.774Z,11.70
2023-04-14T19:57:54.697Z,13.70
2023-04-14T20:01:24.057Z,13.60
2023-04-14T20:04:51.354Z,14.10
2023-04-14T20:08:18.335Z,20.60
2023-04-14T20:11:45.809Z,15.90
2023-04-14T20:15:13.621Z,12.40
2023-04-14T20:18:40.615Z,11.50
2023-04-14T20:22:07.684Z,11.80
2023-04-14T20:25:34.931Z,10.60
2023-04-14T20:29:01.766Z,16.90
2023-04-14T20:32:29.412Z,11.20
2023-04-14T20:35:58.037Z,16.00
2023-04-14T20:39:25.367Z,12.90
2023-04-14T20:42:52.488Z,11.00
2023-04-14T20:46:21.026Z,9.90
2023-04-14T20:49:48.128Z,14.20
2023-04-14T20:53:14.962Z,11.70
2023-04-14T20:56:42.261Z,14.70
2023-04-14T21:00:11.945Z,14.70
2023-04-14T21:07:05.074Z,14.40
2023-04-14T21:10:32.138Z,15.10
2023-04-14T21:15:26.689Z,12.90
2023-04-14T21:17:45.889Z,9.80
2023-04-14T21:21:13.721Z,12.80
2023-04-14T21:24:42.870Z,13.10
2023-04-14T21:28:10.389Z,15.00
2023-04-14T21:31:37.728Z,14.70
2023-04-14T21:35:05.034Z,15.50
2023-04-14T21:38:31.928Z,12.00
2023-04-14T21:41:59.073Z,14.20
2023-04-14T21:45:26.812Z,13.20
2023-04-14T21:48:53.784Z,19.10
2023-04-14T21:52:20.843Z,14.30
2023-04-14T21:55:47.813Z,11.50
2023-04-14T21:59:32.235Z,14.90
2023-04-14T22:02:59.502Z,13.10
2023-04-14T22:06:27.799Z,10.30
2023-04-14T22:09:54.954Z,13.30
2023-04-14T22:13:22.139Z,17.40
2023-04-14T22:16:49.421Z,16.10
2023-04-14T22:20:16.656Z,12.90
2023-04-14T22:23:44.760Z,12.80
2023-04-14T22:27:11.684Z,13.90
2023-04-14T22:30:38.969Z,20.30
2023-04-14T22:34:06.622Z,10.00
2023-04-14T22:37:33.428Z,14.20
2023-04-14T22:41:00.702Z,12.10
2023-04-14T22:44:27.643Z,15.60
2023-04-14T22:47:54.604Z,11.80
2023-04-14T22:51:21.764Z,11.70
2023-04-14T22:54:49.161Z,12.80
2023-04-14T22:58:18.462Z,15.80
2023-04-14T23:01:45.312Z,12.60
2023-04-14T23:05:14.346Z,14.90
2023-04-14T23:08:41.348Z,10.60
2023-04-14T23:12:10.455Z,12.10
2023-04-14T23:15:37.432Z,14.10
2023-04-14T23:19:04.676Z,12.00
2023-04-14T23:22:32.877Z,12.30
2023-04-14T23:25:59.794Z,16.80
2023-04-14T23:29:26.704Z,18.90
2023-04-14T23:32:53.743Z,16.60
2023-04-14T23:36:20.717Z,14.60
2023-04-14T23:39:48.108Z,16.40
2023-04-14T23:43:15.731Z,17.30
2023-04-14T23:46:42.755Z,16.20
2023-04-14T23:50:10.792Z,15.10
2023-04-14T23:53:38.139Z,13.20
2023-04-14T23:57:05.425Z,21.30
